sensor_id;sensor_type;location;lat;lon;timestamp;pressure;altitude;pressure_sealevel;temperature;humidity
15914;BME280;8055;51.930;8.840;2022-12-10T00:01:37;98728.75;;;-1.30;100.00
15914;BME280;8055;51.930;8.840;2022-12-10T00:04:03;98722.47;;;-1.29;100.00
15914;BME280;8055;51.930;8.840;2022-12-10T00:06:33;98719.78;;;-1.29;100.00
15914;BME280;8055;51.930;8.840;2022-12-10T00:09:00;98723.44;;;-1.30;100.00
15914;BME280;8055;51.930;8.840;2022-12-10T00:11:26;98721.50;;;-1.28;100.00
15914;BME280;8055;51.930;8.840;2022-12-10T00:13:52;98722.78;;;-1.23;100.00
15914;BME280;8055;51.930;8.840;2022-12-10T00:16:19;98723.78;;;-1.24;100.00
15914;BME280;8055;51.930;8.840;2022-12-10T00:18:45;98715.78;;;-1.24;100.00
15914;BME280;8055;51.930;8.840;2022-12-10T00:21:14;98720.13;;;-1.23;100.00
15914;BME280;8055;51.930;8.840;2022-12-10T00:23:40;98728.75;;;-1.19;100.00
15914;BME280;8055;51.930;8.840;2022-12-10T00:26:14;98727.88;;;-1.20;100.00
15914;BME280;8055;51.930;8.840;2022-12-10T00:28:40;98730.53;;;-1.20;100.00
15914;BME280;8055;51.930;8.840;2022-12-10T00:31:08;98728.00;;;-1.21;100.00
15914;BME280;8055;51.930;8.840;2022-12-10T00:33:34;98727.75;;;-1.18;100.00
15914;BME280;8055;51.930;8.840;2022-12-10T00:36:21;98729.19;;;-1.14;100.00
15914;BME280;8055;51.930;8.840;2022-12-10T00:38:47;98731.13;;;-1.16;100.00
15914;BME280;8055;51.930;8.840;2022-12-10T00:41:13;98728.94;;;-1.11;100.00
15914;BME280;8055;51.930;8.840;2022-12-10T00:43:40;98727.00;;;-1.09;100.00
15914;BME280;8055;51.930;8.840;2022-12-10T00:46:05;98728.94;;;-1.11;100.00
15914;BME280;8055;51.930;8.840;2022-12-10T00:48:31;98735.69;;;-1.07;100.00
15914;BME280;8055;51.930;8.840;2022-12-10T00:53:28;98731.72;;;-1.12;100.00
15914;BME280;8055;51.930;8.840;2022-12-10T00:55:54;98732.56;;;-1.12;100.00
15914;BME280;8055;51.930;8.840;2022-12-10T00:58:21;98730.88;;;-1.13;100.00
15914;BME280;8055;51.930;8.840;2022-12-10T01:00:47;98736.34;;;-1.14;100.00
15914;BME280;8055;51.930;8.840;2022-12-10T01:03:12;98734.66;;;-1.15;100.00
15914;BME280;8055;51.930;8.840;2022-12-10T01:05:38;98739.97;;;-1.15;100.00
15914;BME280;8055;51.930;8.840;2022-12-10T01:08:04;98744.72;;;-1.19;100.00
15914;BME280;8055;51.930;8.840;2022-12-10T01:10:29;98740.34;;;-1.20;100.00
15914;BME280;8055;51.930;8.840;2022-12-10T01:12:54;98734.19;;;-1.21;100.00
15914;BME280;8055;51.930;8.840;2022-12-10T01:15:20;98736.97;;;-1.22;100.00
15914;BME280;8055;51.930;8.840;2022-12-10T01:17:45;98743.50;;;-1.26;100.00
15914;BME280;8055;51.930;8.840;2022-12-10T01:20:11;98745.22;;;-1.25;100.00
15914;BME280;8055;51.930;8.840;2022-12-10T01:22:37;98757.41;;;-1.23;100.00
15914;BME280;8055;51.930;8.840;2022-12-10T01:25:03;98752.22;;;-1.24;100.00
15914;BME280;8055;51.930;8.840;2022-12-10T01:27:29;98748.84;;;-1.26;100.00
15914;BME280;8055;51.930;8.840;2022-12-10T01:29:54;98760.22;;;-1.24;100.00
15914;BME280;8055;51.930;8.840;2022-12-10T01:32:19;98755.25;;;-1.29;100.00
15914;BME280;8055;51.930;8.840;2022-12-10T01:34:45;98764.22;;;-1.30;100.00
15914;BME280;8055;51.930;8.840;2022-12-10T01:37:10;98760.00;;;-1.32;100.00
15914;BME280;8055;51.930;8.840;2022-12-10T01:39:36;98758.06;;;-1.30;100.00
15914;BME280;8055;51.930;8.840;2022-12-10T01:42:02;98763.97;;;-1.27;100.00
15914;BME280;8055;51.930;8.840;2022-12-10T01:46:55;98759.50;;;-1.26;100.00
15914;BME280;8055;51.930;8.840;2022-12-10T01:49:24;98757.81;;;-1.27;100.00
15914;BME280;8055;51.930;8.840;2022-12-10T01:51:55;98766.78;;;-1.28;100.00
15914;BME280;8055;51.930;8.840;2022-12-10T01:54:30;98764.81;;;-1.26;100.00
15914;BME280;8055;51.930;8.840;2022-12-10T01:57:01;98762.28;;;-1.28;100.00
15914;BME280;8055;51.930;8.840;2022-12-10T01:59:28;98764.81;;;-1.26;100.00
15914;BME280;8055;51.930;8.840;2022-12-10T02:07:51;98766.63;;;-1.27;100.00
15914;BME280;8055;51.930;8.840;2022-12-10T02:10:24;98761.19;;;-1.25;100.00
15914;BME280;8055;51.930;8.840;2022-12-10T02:13:04;98764.56;;;-1.23;100.00
15914;BME280;8055;51.930;8.840;2022-12-10T02:15:35;98749.31;;;-1.21;100.00
15914;BME280;8055;51.930;8.840;2022-12-10T02:18:10;98760.09;;;-1.23;100.00
15914;BME280;8055;51.930;8.840;2022-12-10T02:20:40;98760.09;;;-1.23;100.00
15914;BME280;8055;51.930;8.840;2022-12-10T02:25:49;98756.56;;;-1.23;100.00
15914;BME280;8055;51.930;8.840;2022-12-10T02:28:23;98755.72;;;-1.24;100.00
15914;BME280;8055;51.930;8.840;2022-12-10T02:30:52;98758.41;;;-1.24;100.00
15914;BME280;8055;51.930;8.840;2022-12-10T02:33:19;98762.75;;;-1.23;100.00
15914;BME280;8055;51.930;8.840;2022-12-10T02:35:47;98759.13;;;-1.22;100.00
15914;BME280;8055;51.930;8.840;2022-12-10T02:38:19;98762.50;;;-1.20;100.00
15914;BME280;8055;51.930;8.840;2022-12-10T02:40:50;98765.03;;;-1.18;100.00
15914;BME280;8055;51.930;8.840;2022-12-10T02:43:17;98757.91;;;-1.18;100.00
15914;BME280;8055;51.930;8.840;2022-12-10T02:45:43;98759.31;;;-1.13;100.00
15914;BME280;8055;51.930;8.840;2022-12-10T02:48:10;98763.97;;;-1.15;100.00
15914;BME280;8055;51.930;8.840;2022-12-10T02:50:36;98765.63;;;-1.14;100.00
15914;BME280;8055;51.930;8.840;2022-12-10T02:53:02;98763.09;;;-1.16;100.00
15914;BME280;8055;51.930;8.840;2022-12-10T02:55:32;98760.56;;;-1.18;100.00
15914;BME280;8055;51.930;8.840;2022-12-10T03:00:46;98760.31;;;-1.14;100.00
15914;BME280;8055;51.930;8.840;2022-12-10T03:03:32;98758.38;;;-1.12;100.00
15914;BME280;8055;51.930;8.840;2022-12-10T03:06:14;98760.91;;;-1.11;100.00
15914;BME280;8055;51.930;8.840;2022-12-10T03:11:33;98759.66;;;-1.07;100.00
15914;BME280;8055;51.930;8.840;2022-12-10T03:14:06;98764.03;;;-1.06;100.00
15914;BME280;8055;51.930;8.840;2022-12-10T03:16:38;98761.22;;;-1.04;100.00
15914;BME280;8055;51.930;8.840;2022-12-10T03:19:07;98750.72;;;-1.06;100.00
15914;BME280;8055;51.930;8.840;2022-12-10T03:21:37;98758.97;;;-1.09;100.00
15914;BME280;8055;51.930;8.840;2022-12-10T03:24:03;98751.22;;;-1.12;100.00
15914;BME280;8055;51.930;8.840;2022-12-10T03:26:30;98755.47;;;-1.09;100.00
15914;BME280;8055;51.930;8.840;2022-12-10T03:29:01;98753.63;;;-1.09;100.00
15914;BME280;8055;51.930;8.840;2022-12-10T03:31:30;98746.34;;;-1.07;100.00
15914;BME280;8055;51.930;8.840;2022-12-10T03:33:56;98757.88;;;-1.06;100.00
15914;BME280;8055;51.930;8.840;2022-12-10T03:36:22;98757.72;;;-1.05;100.00
15914;BME280;8055;51.930;8.840;2022-12-10T03:38:49;98756.03;;;-1.06;100.00
15914;BME280;8055;51.930;8.840;2022-12-10T03:41:15;98759.66;;;-1.07;100.00
15914;BME280;8055;51.930;8.840;2022-12-10T03:43:51;98755.06;;;-1.05;100.00
15914;BME280;8055;51.930;8.840;2022-12-10T03:46:17;98756.75;;;-1.04;100.00
15914;BME280;8055;51.930;8.840;2022-12-10T03:48:43;98757.47;;;-1.02;100.00
15914;BME280;8055;51.930;8.840;2022-12-10T03:51:08;98752.28;;;-1.03;100.00
15914;BME280;8055;51.930;8.840;2022-12-10T03:53:34;98758.47;;;-1.03;100.00
15914;BME280;8055;51.930;8.840;2022-12-10T03:55:59;98753.97;;;-1.02;100.00
15914;BME280;8055;51.930;8.840;2022-12-10T03:58:24;98755.66;;;-1.01;100.00
15914;BME280;8055;51.930;8.840;2022-12-10T04:00:50;98759.28;;;-1.02;100.00
15914;BME280;8055;51.930;8.840;2022-12-10T04:03:15;98759.28;;;-1.02;100.00
15914;BME280;8055;51.930;8.840;2022-12-10T04:05:40;98765.34;;;-1.00;100.00
15914;BME280;8055;51.930;8.840;2022-12-10T04:08:06;98770.69;;;-1.00;100.00
15914;BME280;8055;51.930;8.840;2022-12-10T04:10:35;98762.53;;;-0.99;100.00
15914;BME280;8055;51.930;8.840;2022-12-10T04:13:01;98761.81;;;-1.01;100.00
15914;BME280;8055;51.930;8.840;2022-12-10T04:15:44;98772.22;;;-0.98;100.00
15914;BME280;8055;51.930;8.840;2022-12-10T04:18:28;98772.38;;;-0.99;100.00
15914;BME280;8055;51.930;8.840;2022-12-10T04:20:53;98771.38;;;-0.98;100.00
15914;BME280;8055;51.930;8.840;2022-12-10T04:23:37;98774.03;;;-0.98;100.00
15914;BME280;8055;51.930;8.840;2022-12-10T04:26:21;98770.53;;;-0.99;100.00
15914;BME280;8055;51.930;8.840;2022-12-10T04:29:05;98774.19;;;-1.00;100.00
15914;BME280;8055;51.930;8.840;2022-12-10T04:31:31;98777.81;;;-1.01;100.00
15914;BME280;8055;51.930;8.840;2022-12-10T04:33:57;98775.88;;;-0.99;100.00
15914;BME280;8055;51.930;8.840;2022-12-10T04:36:22;98778.44;;;-0.97;100.00
15914;BME280;8055;51.930;8.840;2022-12-10T04:38:47;98772.13;;;-0.96;100.00
15914;BME280;8055;51.930;8.840;2022-12-10T04:41:13;98769.56;;;-0.98;100.00
15914;BME280;8055;51.930;8.840;2022-12-10T04:43:43;98771.84;;;-0.93;100.00
15914;BME280;8055;51.930;8.840;2022-12-10T04:46:10;98770.16;;;-0.94;100.00
15914;BME280;8055;51.930;8.840;2022-12-10T04:48:35;98766.63;;;-0.95;100.00
15914;BME280;8055;51.930;8.840;2022-12-10T04:51:01;98767.47;;;-0.94;100.00
15914;BME280;8055;51.930;8.840;2022-12-10T04:53:27;98770.75;;;-0.90;100.00
15914;BME280;8055;51.930;8.840;2022-12-10T04:55:52;98763.59;;;-0.90;100.00
15914;BME280;8055;51.930;8.840;2022-12-10T04:58:17;98769.63;;;-0.88;100.00
15914;BME280;8055;51.930;8.840;2022-12-10T05:00:43;98773.16;;;-0.87;100.00
15914;BME280;8055;51.930;8.840;2022-12-10T05:03:08;98766.97;;;-0.88;100.00
15914;BME280;8055;51.930;8.840;2022-12-10T05:05:34;98779.44;;;-0.88;100.00
15914;BME280;8055;51.930;8.840;2022-12-10T05:07:59;98775.94;;;-0.89;100.00
15914;BME280;8055;51.930;8.840;2022-12-10T05:10:25;98786.59;;;-0.89;100.00
15914;BME280;8055;51.930;8.840;2022-12-10T05:12:51;98780.44;;;-0.89;100.00
15914;BME280;8055;51.930;8.840;2022-12-10T05:15:16;98789.28;;;-0.89;100.00
15914;BME280;8055;51.930;8.840;2022-12-10T05:17:41;98776.78;;;-0.88;100.00
15914;BME280;8055;51.930;8.840;2022-12-10T05:20:07;98784.78;;;-0.88;100.00
15914;BME280;8055;51.930;8.840;2022-12-10T05:22:32;98780.19;;;-0.86;100.00
15914;BME280;8055;51.930;8.840;2022-12-10T05:25:16;98776.53;;;-0.85;100.00
15914;BME280;8055;51.930;8.840;2022-12-10T05:27:42;98779.19;;;-0.85;100.00
15914;BME280;8055;51.930;8.840;2022-12-10T05:30:08;98776.53;;;-0.85;100.00
15914;BME280;8055;51.930;8.840;2022-12-10T05:32:34;98781.88;;;-0.85;100.00
15914;BME280;8055;51.930;8.840;2022-12-10T05:35:00;98782.00;;;-0.87;100.00
15914;BME280;8055;51.930;8.840;2022-12-10T05:37:25;98777.38;;;-0.85;100.00
15914;BME280;8055;51.930;8.840;2022-12-10T05:39:50;98786.25;;;-0.84;100.00
15914;BME280;8055;51.930;8.840;2022-12-10T05:42:16;98781.88;;;-0.85;100.00
15914;BME280;8055;51.930;8.840;2022-12-10T05:44:41;98784.69;;;-0.87;100.00
15914;BME280;8055;51.930;8.840;2022-12-10T05:47:06;98789.16;;;-0.87;100.00
15914;BME280;8055;51.930;8.840;2022-12-10T05:49:32;98789.03;;;-0.86;100.00
15914;BME280;8055;51.930;8.840;2022-12-10T05:51:57;98799.69;;;-0.86;100.00
15914;BME280;8055;51.930;8.840;2022-12-10T05:54:22;98799.44;;;-0.83;100.00
15914;BME280;8055;51.930;8.840;2022-12-10T05:56:48;98798.69;;;-0.85;100.00
15914;BME280;8055;51.930;8.840;2022-12-10T05:59:13;98799.69;;;-0.86;100.00
15914;BME280;8055;51.930;8.840;2022-12-10T06:01:38;98797.16;;;-0.87;100.00
15914;BME280;8055;51.930;8.840;2022-12-10T06:04:04;98800.41;;;-0.84;100.00
15914;BME280;8055;51.930;8.840;2022-12-10T06:06:34;98798.59;;;-0.83;100.00
15914;BME280;8055;51.930;8.840;2022-12-10T06:08:59;98806.31;;;-0.80;100.00
15914;BME280;8055;51.930;8.840;2022-12-10T06:11:26;98800.28;;;-0.82;100.00
15914;BME280;8055;51.930;8.840;2022-12-10T06:13:52;98806.31;;;-0.80;100.00
15914;BME280;8055;51.930;8.840;2022-12-10T06:16:17;98806.31;;;-0.80;100.00
15914;BME280;8055;51.930;8.840;2022-12-10T06:18:43;98805.34;;;-0.79;100.00
15914;BME280;8055;51.930;8.840;2022-12-10T06:21:14;98806.19;;;-0.79;100.00
15914;BME280;8055;51.930;8.840;2022-12-10T06:23:40;98802.69;;;-0.79;100.00
15914;BME280;8055;51.930;8.840;2022-12-10T06:26:18;98804.25;;;-0.77;100.00
15914;BME280;8055;51.930;8.840;2022-12-10T06:28:45;98807.91;;;-0.78;100.00
15914;BME280;8055;51.930;8.840;2022-12-10T06:31:11;98813.94;;;-0.76;100.00
15914;BME280;8055;51.930;8.840;2022-12-10T06:33:37;98804.13;;;-0.75;100.00
15914;BME280;8055;51.930;8.840;2022-12-10T06:36:07;98808.84;;;-0.79;100.00
15914;BME280;8055;51.930;8.840;2022-12-10T06:38:33;98812.50;;;-0.80;100.00
15914;BME280;8055;51.930;8.840;2022-12-10T06:40:59;98814.19;;;-0.79;100.00
15914;BME280;8055;51.930;8.840;2022-12-10T06:43:28;98816.59;;;-0.76;100.00
15914;BME280;8055;51.930;8.840;2022-12-10T06:45:53;98817.56;;;-0.77;100.00
15914;BME280;8055;51.930;8.840;2022-12-10T06:48:19;98813.34;;;-0.79;100.00
15914;BME280;8055;51.930;8.840;2022-12-10T06:50:44;98818.34;;;-0.86;100.00
15914;BME280;8055;51.930;8.840;2022-12-10T06:53:09;98821.16;;;-0.87;100.00
15914;BME280;8055;51.930;8.840;2022-12-10T06:55:36;98819.34;;;-0.98;100.00
15914;BME280;8055;51.930;8.840;2022-12-10T06:58:02;98816.81;;;-1.00;100.00
15914;BME280;8055;51.930;8.840;2022-12-10T07:00:28;98818.41;;;-0.97;100.00
15914;BME280;8055;51.930;8.840;2022-12-10T07:02:53;98823.59;;;-0.96;100.00
15914;BME280;8055;51.930;8.840;2022-12-10T07:05:18;98827.22;;;-0.97;100.00
15914;BME280;8055;51.930;8.840;2022-12-10T07:07:44;98826.97;;;-0.94;100.00
15914;BME280;8055;51.930;8.840;2022-12-10T07:10:09;98827.81;;;-0.93;100.00
15914;BME280;8055;51.930;8.840;2022-12-10T07:12:35;98826.72;;;-0.90;100.00
15914;BME280;8055;51.930;8.840;2022-12-10T07:15:00;98831.31;;;-0.93;100.00
15914;BME280;8055;51.930;8.840;2022-12-10T07:17:26;98832.31;;;-0.94;100.00
15914;BME280;8055;51.930;8.840;2022-12-10T07:19:51;98832.16;;;-0.92;100.00
15914;BME280;8055;51.930;8.840;2022-12-10T07:22:17;98836.50;;;-0.91;100.00
15914;BME280;8055;51.930;8.840;2022-12-10T07:24:42;98831.44;;;-0.94;100.00
15914;BME280;8055;51.930;8.840;2022-12-10T07:27:08;98832.91;;;-0.90;100.00
15914;BME280;8055;51.930;8.840;2022-12-10T07:29:33;98833.00;;;-0.91;100.00
15914;BME280;8055;51.930;8.840;2022-12-10T07:31:59;98850.56;;;-0.89;100.00
15914;BME280;8055;51.930;8.840;2022-12-10T07:34:24;98845.38;;;-0.90;100.00
15914;BME280;8055;51.930;8.840;2022-12-10T07:36:50;98848.03;;;-0.90;100.00
15914;BME280;8055;51.930;8.840;2022-12-10T07:39:15;98854.22;;;-0.90;100.00
15914;BME280;8055;51.930;8.840;2022-12-10T07:41:49;98853.38;;;-0.90;100.00
15914;BME280;8055;51.930;8.840;2022-12-10T07:44:19;98860.75;;;-0.94;100.00
15914;BME280;8055;51.930;8.840;2022-12-10T07:46:47;98868.63;;;-0.93;100.00
15914;BME280;8055;51.930;8.840;2022-12-10T07:49:13;98863.56;;;-0.96;100.00
15914;BME280;8055;51.930;8.840;2022-12-10T07:51:38;98857.25;;;-0.95;100.00
15914;BME280;8055;51.930;8.840;2022-12-10T07:54:04;98865.13;;;-0.93;100.00
15914;BME280;8055;51.930;8.840;2022-12-10T07:56:29;98869.03;;;-0.97;100.00
15914;BME280;8055;51.930;8.840;2022-12-10T07:58:54;98876.03;;;-0.96;100.00
15914;BME280;8055;51.930;8.840;2022-12-10T08:01:23;98882.44;;;-0.99;100.00
15914;BME280;8055;51.930;8.840;2022-12-10T08:03:49;98877.00;;;-0.97;100.00
15914;BME280;8055;51.930;8.840;2022-12-10T08:06:17;98875.78;;;-0.93;100.00
15914;BME280;8055;51.930;8.840;2022-12-10T08:08:43;98881.38;;;-0.96;100.00
15914;BME280;8055;51.930;8.840;2022-12-10T08:11:10;98875.91;;;-0.95;100.00
15914;BME280;8055;51.930;8.840;2022-12-10T08:13:36;98876.03;;;-0.96;100.00
15914;BME280;8055;51.930;8.840;2022-12-10T08:16:07;98885.59;;;-0.94;100.00
15914;BME280;8055;51.930;8.840;2022-12-10T08:18:34;98883.63;;;-0.91;100.00
15914;BME280;8055;51.930;8.840;2022-12-10T08:21:05;98877.47;;;-0.92;100.00
15914;BME280;8055;51.930;8.840;2022-12-10T08:23:30;98878.56;;;-0.95;100.00
15914;BME280;8055;51.930;8.840;2022-12-10T08:25:56;98884.72;;;-0.94;100.00
15914;BME280;8055;51.930;8.840;2022-12-10T08:28:21;98887.28;;;-0.93;100.00
15914;BME280;8055;51.930;8.840;2022-12-10T08:30:48;98888.88;;;-0.90;100.00
15914;BME280;8055;51.930;8.840;2022-12-10T08:33:13;98890.53;;;-0.89;100.00
15914;BME280;8055;51.930;8.840;2022-12-10T08:35:39;98888.72;;;-0.88;100.00
15914;BME280;8055;51.930;8.840;2022-12-10T08:38:04;98889.19;;;-0.83;100.00
15914;BME280;8055;51.930;8.840;2022-12-10T08:40:30;98895.97;;;-0.79;100.00
15914;BME280;8055;51.930;8.840;2022-12-10T08:42:55;98885.56;;;-0.82;100.00
15914;BME280;8055;51.930;8.840;2022-12-10T08:45:20;98895.03;;;-0.78;100.00
15914;BME280;8055;51.930;8.840;2022-12-10T08:47:46;98894.03;;;-0.77;100.00
15914;BME280;8055;51.930;8.840;2022-12-10T08:50:11;98904.69;;;-0.77;100.00
15914;BME280;8055;51.930;8.840;2022-12-10T08:52:37;98907.22;;;-0.76;100.00
15914;BME280;8055;51.930;8.840;2022-12-10T08:55:02;98908.09;;;-0.75;100.00
15914;BME280;8055;51.930;8.840;2022-12-10T08:57:28;98902.63;;;-0.74;100.00
15914;BME280;8055;51.930;8.840;2022-12-10T08:59:53;98897.19;;;-0.72;100.00
15914;BME280;8055;51.930;8.840;2022-12-10T09:02:18;98902.22;;;-0.69;100.00
15914;BME280;8055;51.930;8.840;2022-12-10T09:04:44;98901.38;;;-0.70;100.00
15914;BME280;8055;51.930;8.840;2022-12-10T09:07:12;98904.19;;;-0.71;100.00
15914;BME280;8055;51.930;8.840;2022-12-10T09:09:37;98908.53;;;-0.70;100.00
15914;BME280;8055;51.930;8.840;2022-12-10T09:12:03;98911.09;;;-0.68;100.00
15914;BME280;8055;51.930;8.840;2022-12-10T09:14:28;98914.63;;;-0.68;100.00
15914;BME280;8055;51.930;8.840;2022-12-10T09:16:53;98915.56;;;-0.69;100.00
15914;BME280;8055;51.930;8.840;2022-12-10T09:19:19;98917.03;;;-0.65;100.00
15914;BME280;8055;51.930;8.840;2022-12-10T09:21:44;98921.28;;;-0.62;100.00
15914;BME280;8055;51.930;8.840;2022-12-10T09:24:10;98927.94;;;-0.68;100.00
15914;BME280;8055;51.930;8.840;2022-12-10T09:26:35;98925.88;;;-0.64;100.00
15914;BME280;8055;51.930;8.840;2022-12-10T09:29:00;98931.09;;;-0.74;100.00
15914;BME280;8055;51.930;8.840;2022-12-10T09:31:27;98933.28;;;-0.68;100.00
15914;BME280;8055;51.930;8.840;2022-12-10T09:33:53;98934.63;;;-0.74;100.00
15914;BME280;8055;51.930;8.840;2022-12-10T09:36:19;98944.03;;;-0.70;100.00
15914;BME280;8055;51.930;8.840;2022-12-10T09:38:46;98940.69;;;-0.72;100.00
15914;BME280;8055;51.930;8.840;2022-12-10T09:44:03;98942.63;;;-0.74;100.00
15914;BME280;8055;51.930;8.840;2022-12-10T09:46:55;98936.03;;;-0.70;100.00
15914;BME280;8055;51.930;8.840;2022-12-10T09:49:44;98933.97;;;-0.66;100.00
15914;BME280;8055;51.930;8.840;2022-12-10T09:52:18;98937.75;;;-0.68;100.00
15914;BME280;8055;51.930;8.840;2022-12-10T09:54:50;98937.50;;;-0.65;100.00
15914;BME280;8055;51.930;8.840;2022-12-10T09:57:45;98931.19;;;-0.64;100.00
15914;BME280;8055;51.930;8.840;2022-12-10T10:00:41;98933.03;;;-0.65;100.00
15914;BME280;8055;51.930;8.840;2022-12-10T10:03:15;98931.94;;;-0.62;100.00
15914;BME280;8055;51.930;8.840;2022-12-10T10:05:43;98931.31;;;-0.66;100.00
15914;BME280;8055;51.930;8.840;2022-12-10T10:08:26;98928.03;;;-0.58;100.00
15914;BME280;8055;51.930;8.840;2022-12-10T10:10:53;98938.31;;;-0.54;100.00
15914;BME280;8055;51.930;8.840;2022-12-10T10:13:35;98924.97;;;-0.54;100.00
15914;BME280;8055;51.930;8.840;2022-12-10T10:18:43;98922.81;;;-0.60;100.00
15914;BME280;8055;51.930;8.840;2022-12-10T10:21:21;98926.69;;;-0.53;100.00
15914;BME280;8055;51.930;8.840;2022-12-10T10:23:47;98925.72;;;-0.63;100.00
15914;BME280;8055;51.930;8.840;2022-12-10T10:26:13;98916.53;;;-0.59;100.00
15914;BME280;8055;51.930;8.840;2022-12-10T10:28:40;98929.59;;;-0.56;100.00
15914;BME280;8055;51.930;8.840;2022-12-10T10:31:18;98926.59;;;-0.62;100.00
15914;BME280;8055;51.930;8.840;2022-12-10T10:33:56;98922.81;;;-0.60;100.00
15914;BME280;8055;51.930;8.840;2022-12-10T10:36:24;98928.28;;;-0.61;100.00
15914;BME280;8055;51.930;8.840;2022-12-10T10:38:50;98927.81;;;-0.66;100.00
15914;BME280;8055;51.930;8.840;2022-12-10T10:41:15;98927.09;;;-0.68;100.00
15914;BME280;8055;51.930;8.840;2022-12-10T10:43:42;98928.78;;;-0.67;100.00
15914;BME280;8055;51.930;8.840;2022-12-10T10:46:14;98929.38;;;-0.64;100.00
15914;BME280;8055;51.930;8.840;2022-12-10T10:48:40;98925.38;;;-0.70;100.00
15914;BME280;8055;51.930;8.840;2022-12-10T10:51:18;98929.38;;;-0.64;100.00
15914;BME280;8055;51.930;8.840;2022-12-10T10:53:48;98928.38;;;-0.63;100.00
15914;BME280;8055;51.930;8.840;2022-12-10T10:56:23;98931.69;;;-0.59;100.00
15914;BME280;8055;51.930;8.840;2022-12-10T10:59:02;98927.53;;;-0.52;100.00
15914;BME280;8055;51.930;8.840;2022-12-10T11:01:54;98930.78;;;-0.49;100.00
15914;BME280;8055;51.930;8.840;2022-12-10T11:04:28;98927.38;;;-0.51;100.00
15914;BME280;8055;51.930;8.840;2022-12-10T11:06:56;98929.22;;;-0.51;100.00
15914;BME280;8055;51.930;8.840;2022-12-10T11:09:27;98933.19;;;-0.45;100.00
15914;BME280;8055;51.930;8.840;2022-12-10T11:12:05;98928.97;;;-0.48;100.00
15914;BME280;8055;51.930;8.840;2022-12-10T11:14:44;98932.63;;;-0.49;100.00
15914;BME280;8055;51.930;8.840;2022-12-10T11:19:54;98921.03;;;-0.59;100.00
15914;BME280;8055;51.930;8.840;2022-12-10T11:22:26;98926.47;;;-0.61;100.00
15914;BME280;8055;51.930;8.840;2022-12-10T11:24:51;98935.19;;;-0.59;100.00
15914;BME280;8055;51.930;8.840;2022-12-10T11:27:52;98930.44;;;-0.55;100.00
15914;BME280;8055;51.930;8.840;2022-12-10T11:30:24;98935.03;;;-0.57;100.00
15914;BME280;8055;51.930;8.840;2022-12-10T11:33:27;98937.59;;;-0.56;100.00
15914;BME280;8055;51.930;8.840;2022-12-10T11:36:28;98924.28;;;-0.56;100.00
15914;BME280;8055;51.930;8.840;2022-12-10T11:39:20;98929.84;;;-0.59;100.00
15914;BME280;8055;51.930;8.840;2022-12-10T11:42:07;98928.13;;;-0.60;100.00
15914;BME280;8055;51.930;8.840;2022-12-10T11:50:49;98941.47;;;-0.60;100.00
15914;BME280;8055;51.930;8.840;2022-12-10T11:53:34;98934.34;;;-0.59;100.00
15914;BME280;8055;51.930;8.840;2022-12-10T11:56:24;98936.03;;;-0.58;100.00
15914;BME280;8055;51.930;8.840;2022-12-10T12:01:51;98933.38;;;-0.58;100.00
15914;BME280;8055;51.930;8.840;2022-12-10T12:04:44;98948.13;;;-0.54;100.00
15914;BME280;8055;51.930;8.840;2022-12-10T12:07:30;98938.69;;;-0.58;100.00
15914;BME280;8055;51.930;8.840;2022-12-10T12:15:38;98941.97;;;-0.55;100.00
15914;BME280;8055;51.930;8.840;2022-12-10T12:21:04;98941.63;;;-0.61;100.00
15914;BME280;8055;51.930;8.840;2022-12-10T12:26:13;98944.63;;;-0.66;100.00
15914;BME280;8055;51.930;8.840;2022-12-10T12:28:52;98936.03;;;-0.70;100.00
15914;BME280;8055;51.930;8.840;2022-12-10T12:31:22;98945.28;;;-0.74;100.00
15914;BME280;8055;51.930;8.840;2022-12-10T12:33:59;98944.03;;;-0.70;100.00
15914;BME280;8055;51.930;8.840;2022-12-10T12:36:27;98949.88;;;-0.64;100.00
15914;BME280;8055;51.930;8.840;2022-12-10T12:39:11;98947.69;;;-0.59;100.00
15914;BME280;8055;51.930;8.840;2022-12-10T12:42:09;98937.84;;;-0.59;100.00
15914;BME280;8055;51.930;8.840;2022-12-10T12:49:53;98947.03;;;-0.52;100.00
15914;BME280;8055;51.930;8.840;2022-12-10T12:52:38;98946.06;;;-0.51;100.00
15914;BME280;8055;51.930;8.840;2022-12-10T12:55:19;98947.88;;;-0.51;100.00
15914;BME280;8055;51.930;8.840;2022-12-10T12:58:13;98945.22;;;-0.51;100.00
15914;BME280;8055;51.930;8.840;2022-12-10T13:00:43;98941.44;;;-0.49;100.00
15914;BME280;8055;51.930;8.840;2022-12-10T13:05:45;98950.03;;;-0.45;100.00
15914;BME280;8055;51.930;8.840;2022-12-10T13:10:50;98963.53;;;-0.47;100.00
15914;BME280;8055;51.930;8.840;2022-12-10T13:13:23;98972.72;;;-0.51;100.00
15914;BME280;8055;51.930;8.840;2022-12-10T13:15:50;98958.44;;;-0.50;100.00
15914;BME280;8055;51.930;8.840;2022-12-10T13:39:22;98958.34;;;-0.59;100.00
15914;BME280;8055;51.930;8.840;2022-12-10T13:47:49;98975.03;;;-0.57;100.00
15914;BME280;8055;51.930;8.840;2022-12-10T13:55:55;98962.56;;;-0.57;100.00
15914;BME280;8055;51.930;8.840;2022-12-10T13:58:46;98965.94;;;-0.55;100.00
15914;BME280;8055;51.930;8.840;2022-12-10T14:01:33;98965.84;;;-0.53;100.00
15914;BME280;8055;51.930;8.840;2022-12-10T14:04:27;98966.69;;;-0.53;100.00
15914;BME280;8055;51.930;8.840;2022-12-10T14:06:58;98966.19;;;-0.58;100.00
15914;BME280;8055;51.930;8.840;2022-12-10T14:09:32;98969.59;;;-0.56;100.00
15914;BME280;8055;51.930;8.840;2022-12-10T14:12:10;98967.88;;;-0.57;100.00
15914;BME280;8055;51.930;8.840;2022-12-10T14:14:57;98968.75;;;-0.56;100.00
15914;BME280;8055;51.930;8.840;2022-12-10T14:17:33;98968.88;;;-0.58;100.00
15914;BME280;8055;51.930;8.840;2022-12-10T14:20:02;98970.94;;;-0.61;100.00
15914;BME280;8055;51.930;8.840;2022-12-10T14:22:38;98970.94;;;-0.61;100.00
15914;BME280;8055;51.930;8.840;2022-12-10T14:25:10;98972.19;;;-0.65;100.00
15914;BME280;8055;51.930;8.840;2022-12-10T14:27:36;98976.63;;;-0.66;100.00
15914;BME280;8055;51.930;8.840;2022-12-10T14:30:15;98974.34;;;-0.71;100.00
15914;BME280;8055;51.930;8.840;2022-12-10T14:32:41;98977.41;;;-0.75;100.00
15914;BME280;8055;51.930;8.840;2022-12-10T14:35:13;98986.09;;;-0.73;100.00
15914;BME280;8055;51.930;8.840;2022-12-10T14:37:43;98986.84;;;-0.71;100.00
15914;BME280;8055;51.930;8.840;2022-12-10T14:40:21;98987.09;;;-0.74;100.00
15914;BME280;8055;51.930;8.840;2022-12-10T14:42:48;98983.94;;;-0.79;100.00
15914;BME280;8055;51.930;8.840;2022-12-10T14:45:15;98986.59;;;-0.79;100.00